Apalachicola, FL

4:31 AM EDT on September 16, 2014 (GMT -0400)
Apalachicola Municipal | Change Station
CLOSE
Current Station
Airport
Location: Apalachicola,
Elevation: 20 ft
Nearby Weather Stations
Active Advisory: Coastal Hazard Statement

Elev 20 ft 29.73 °N, 85.03 °W | Updated 17 minutes ago

Scattered Clouds
Scattered Clouds
78 °F
Feels Like 78 °F
N
12
Wind Variable Wind from SW

Today
High -- | Low -- °F
--% Chance of Precip.
Yesterday
High -- | Low -- °F
Precip. -- in
7:25 AM 7:43 PM
Waning Gibbous, 47% visible
Pressure 30.04 in
Visibility 10.0 miles
Clouds Few 1400 ft
Scattered Clouds 2700 ft
Dew Point 74 °F
Humidity 87%
Rainfall 0.26 in
Snow Depth Not available.
UV 0 out of 12
Pollen 8.10 out of 12
Air Quality Not available.
Flu Activity Not available.
SPECI KAAF 160814Z AUTO 22010KT 10SM FEW014 SCT027 26/23 A3004 RMK AO2 LTG DSNT SW T02560233

More Conditions Fewer Conditions

Pressure 30.04 in
Visibility 10.0 miles
Clouds Few 1400 ft
Scattered Clouds 2700 ft
Dew Point 74 °F
Humidity 87%
Rainfall 0.26 in
Snow Depth Not available.
UV 0 out of 12
Pollen 8.10 out of 12
Air Quality Not available.
Flu Activity Not available.
SPECI KAAF 160814Z AUTO 22010KT 10SM FEW014 SCT027 26/23 A3004 RMK AO2 LTG DSNT SW T02560233

More Conditions Fewer Conditions

10-Day Weather Forecast

Almanac

Astronomy

Sep. 16, 2014 Rise Set
Actual Time 7:25 AM EDT 7:43 PM EDT
Civil Twilight 7:01 AM EDT 8:07 PM EDT
Nautical Twilight 6:33 AM EDT 8:35 PM EDT
Astronomical Twilight 6:05 AM EDT 9:03 PM EDT
Moon 12:53 AM EDT 2:48 PM EDT
Length of Visible Light 13h 06m
Length of Day
12h 18m
Tomorrow will be 1m 46s shorter.
Waning Gibbous, 47% of the Moon is Illuminated
Today
Waning Gibbous
Sep 24
New
Oct 1
First Quarter
Oct 8
Full
Oct 15
Last Quarter

Today's Extremes

State Highs State Lows

Community

WunderPhotos

Upload Photos

1,753,712 photos uploaded!

WunderBlogs® & News

Nearby

Snow Depth

Station Depth Elevation
No new snow has been reported.

Earthquake Activity

City Distance Mag. Time & Date
No recent earthquake activity has been reported nearby.
Minimum magnitude displayed is 2.5.

Coastal Water Temperatures

Place Temperature
Panama City, FL 87.1 °F
Panama City Beach, FL 86.0 °F
Apalachicola, FL 84.9 °F

Nearby Weather Stations